sensor_id;sensor_type;location;lat;lon;timestamp;P1;durP1;ratioP1;P2;durP2;ratioP2
6663;SDS011;58749;48.022;10.922;2022-08-24T00:01:30;9.27;;;4.18;;
6663;SDS011;58749;48.022;10.922;2022-08-24T00:03:58;4.55;;;3.67;;
6663;SDS011;58749;48.022;10.922;2022-08-24T00:06:30;9.75;;;4.03;;
6663;SDS011;58749;48.022;10.922;2022-08-24T00:08:58;7.00;;;3.85;;
6663;SDS011;58749;48.022;10.922;2022-08-24T00:11:27;8.38;;;3.70;;
6663;SDS011;58749;48.022;10.922;2022-08-24T00:13:57;6.88;;;3.08;;
6663;SDS011;58749;48.022;10.922;2022-08-24T00:16:26;9.43;;;3.55;;
6663;SDS011;58749;48.022;10.922;2022-08-24T00:18:54;5.43;;;3.38;;
6663;SDS011;58749;48.022;10.922;2022-08-24T00:21:23;7.57;;;3.33;;
6663;SDS011;58749;48.022;10.922;2022-08-24T00:23:52;9.20;;;3.72;;
6663;SDS011;58749;48.022;10.922;2022-08-24T00:26:21;6.93;;;3.42;;
6663;SDS011;58749;48.022;10.922;2022-08-24T00:28:54;4.18;;;3.63;;
6663;SDS011;58749;48.022;10.922;2022-08-24T00:31:24;4.68;;;3.58;;
6663;SDS011;58749;48.022;10.922;2022-08-24T00:33:52;8.00;;;4.22;;
6663;SDS011;58749;48.022;10.922;2022-08-24T00:36:21;4.05;;;3.50;;
6663;SDS011;58749;48.022;10.922;2022-08-24T00:38:52;9.43;;;4.00;;
6663;SDS011;58749;48.022;10.922;2022-08-24T00:41:21;5.78;;;3.70;;
6663;SDS011;58749;48.022;10.922;2022-08-24T00:43:50;10.32;;;3.67;;
6663;SDS011;58749;48.022;10.922;2022-08-24T00:46:21;7.90;;;3.78;;
6663;SDS011;58749;48.022;10.922;2022-08-24T00:48:56;8.88;;;3.70;;
6663;SDS011;58749;48.022;10.922;2022-08-24T00:51:30;7.47;;;3.95;;
6663;SDS011;58749;48.022;10.922;2022-08-24T00:54:05;6.15;;;3.75;;
6663;SDS011;58749;48.022;10.922;2022-08-24T00:56:36;10.32;;;3.03;;
6663;SDS011;58749;48.022;10.922;2022-08-24T00:59:08;11.18;;;3.45;;
6663;SDS011;58749;48.022;10.922;2022-08-24T01:01:40;5.37;;;3.03;;
6663;SDS011;58749;48.022;10.922;2022-08-24T01:04:10;4.68;;;3.17;;
6663;SDS011;58749;48.022;10.922;2022-08-24T01:06:43;10.00;;;3.28;;
6663;SDS011;58749;48.022;10.922;2022-08-24T01:09:14;4.05;;;2.78;;
6663;SDS011;58749;48.022;10.922;2022-08-24T01:11:44;4.32;;;2.97;;
6663;SDS011;58749;48.022;10.922;2022-08-24T01:14:14;8.20;;;3.05;;
6663;SDS011;58749;48.022;10.922;2022-08-24T01:16:44;8.48;;;3.35;;
6663;SDS011;58749;48.022;10.922;2022-08-24T01:19:32;6.00;;;3.03;;
6663;SDS011;58749;48.022;10.922;2022-08-24T01:22:10;7.90;;;2.60;;
6663;SDS011;58749;48.022;10.922;2022-08-24T01:24:48;4.93;;;2.38;;
6663;SDS011;58749;48.022;10.922;2022-08-24T01:27:16;10.63;;;2.97;;
6663;SDS011;58749;48.022;10.922;2022-08-24T01:29:53;11.10;;;2.70;;
6663;SDS011;58749;48.022;10.922;2022-08-24T01:32:22;4.30;;;2.53;;
6663;SDS011;58749;48.022;10.922;2022-08-24T01:34:53;9.00;;;3.30;;
6663;SDS011;58749;48.022;10.922;2022-08-24T01:37:21;12.68;;;3.63;;
6663;SDS011;58749;48.022;10.922;2022-08-24T01:39:53;4.13;;;2.90;;
6663;SDS011;58749;48.022;10.922;2022-08-24T01:42:24;5.07;;;2.90;;
6663;SDS011;58749;48.022;10.922;2022-08-24T01:44:55;10.13;;;2.67;;
6663;SDS011;58749;48.022;10.922;2022-08-24T01:47:23;3.55;;;2.92;;
6663;SDS011;58749;48.022;10.922;2022-08-24T01:49:52;7.45;;;3.22;;
6663;SDS011;58749;48.022;10.922;2022-08-24T01:52:21;13.15;;;3.28;;
6663;SDS011;58749;48.022;10.922;2022-08-24T01:54:52;6.93;;;2.90;;
6663;SDS011;58749;48.022;10.922;2022-08-24T01:57:22;6.68;;;2.47;;
6663;SDS011;58749;48.022;10.922;2022-08-24T01:59:52;6.57;;;2.40;;
6663;SDS011;58749;48.022;10.922;2022-08-24T02:02:21;6.93;;;3.13;;
6663;SDS011;58749;48.022;10.922;2022-08-24T02:04:53;8.82;;;3.15;;
6663;SDS011;58749;48.022;10.922;2022-08-24T02:07:22;3.17;;;2.70;;
6663;SDS011;58749;48.022;10.922;2022-08-24T02:09:51;4.85;;;2.58;;
6663;SDS011;58749;48.022;10.922;2022-08-24T02:12:20;6.38;;;3.30;;
6663;SDS011;58749;48.022;10.922;2022-08-24T02:14:49;5.05;;;2.60;;
6663;SDS011;58749;48.022;10.922;2022-08-24T02:17:17;5.75;;;2.88;;
6663;SDS011;58749;48.022;10.922;2022-08-24T02:19:45;4.47;;;2.40;;
6663;SDS011;58749;48.022;10.922;2022-08-24T02:22:13;4.95;;;2.70;;
6663;SDS011;58749;48.022;10.922;2022-08-24T02:24:42;6.55;;;2.85;;
6663;SDS011;58749;48.022;10.922;2022-08-24T02:27:11;5.28;;;2.80;;
6663;SDS011;58749;48.022;10.922;2022-08-24T02:29:42;3.73;;;2.80;;
6663;SDS011;58749;48.022;10.922;2022-08-24T02:32:10;3.60;;;3.15;;
6663;SDS011;58749;48.022;10.922;2022-08-24T02:34:38;3.05;;;2.30;;
6663;SDS011;58749;48.022;10.922;2022-08-24T02:37:08;3.35;;;2.75;;
6663;SDS011;58749;48.022;10.922;2022-08-24T02:39:37;6.47;;;2.58;;
6663;SDS011;58749;48.022;10.922;2022-08-24T02:42:05;3.25;;;2.30;;
6663;SDS011;58749;48.022;10.922;2022-08-24T02:44:34;7.32;;;2.97;;
6663;SDS011;58749;48.022;10.922;2022-08-24T02:47:03;5.53;;;2.65;;
6663;SDS011;58749;48.022;10.922;2022-08-24T02:49:31;4.80;;;2.58;;
6663;SDS011;58749;48.022;10.922;2022-08-24T02:51:59;6.72;;;2.17;;
6663;SDS011;58749;48.022;10.922;2022-08-24T02:54:28;3.00;;;2.33;;
6663;SDS011;58749;48.022;10.922;2022-08-24T02:56:56;3.72;;;2.42;;
6663;SDS011;58749;48.022;10.922;2022-08-24T02:59:25;6.43;;;2.60;;
6663;SDS011;58749;48.022;10.922;2022-08-24T03:01:54;10.65;;;3.00;;
6663;SDS011;58749;48.022;10.922;2022-08-24T03:04:23;7.40;;;2.30;;
6663;SDS011;58749;48.022;10.922;2022-08-24T03:06:51;9.98;;;3.60;;
6663;SDS011;58749;48.022;10.922;2022-08-24T03:09:19;11.70;;;2.63;;
6663;SDS011;58749;48.022;10.922;2022-08-24T03:11:48;7.07;;;2.13;;
6663;SDS011;58749;48.022;10.922;2022-08-24T03:14:17;4.05;;;2.63;;
6663;SDS011;58749;48.022;10.922;2022-08-24T03:16:45;3.42;;;2.65;;
6663;SDS011;58749;48.022;10.922;2022-08-24T03:19:15;6.68;;;2.47;;
6663;SDS011;58749;48.022;10.922;2022-08-24T03:21:44;6.40;;;2.67;;
6663;SDS011;58749;48.022;10.922;2022-08-24T03:24:12;3.83;;;2.58;;
6663;SDS011;58749;48.022;10.922;2022-08-24T03:26:40;10.85;;;2.85;;
6663;SDS011;58749;48.022;10.922;2022-08-24T03:29:09;6.10;;;2.60;;
6663;SDS011;58749;48.022;10.922;2022-08-24T03:31:41;6.05;;;3.03;;
6663;SDS011;58749;48.022;10.922;2022-08-24T03:34:09;5.32;;;2.53;;
6663;SDS011;58749;48.022;10.922;2022-08-24T03:36:40;6.13;;;2.90;;
6663;SDS011;58749;48.022;10.922;2022-08-24T03:39:11;5.45;;;2.63;;
6663;SDS011;58749;48.022;10.922;2022-08-24T03:41:40;10.45;;;3.00;;
6663;SDS011;58749;48.022;10.922;2022-08-24T03:44:08;14.32;;;2.88;;
6663;SDS011;58749;48.022;10.922;2022-08-24T03:46:36;14.77;;;3.85;;
6663;SDS011;58749;48.022;10.922;2022-08-24T03:49:07;13.48;;;3.47;;
6663;SDS011;58749;48.022;10.922;2022-08-24T03:51:36;6.35;;;3.15;;
6663;SDS011;58749;48.022;10.922;2022-08-24T03:54:06;5.10;;;2.78;;
6663;SDS011;58749;48.022;10.922;2022-08-24T03:56:36;8.25;;;2.95;;
6663;SDS011;58749;48.022;10.922;2022-08-24T03:59:05;6.15;;;3.38;;
6663;SDS011;58749;48.022;10.922;2022-08-24T04:01:35;5.55;;;2.72;;
6663;SDS011;58749;48.022;10.922;2022-08-24T04:04:04;7.40;;;2.72;;
6663;SDS011;58749;48.022;10.922;2022-08-24T04:06:32;5.30;;;3.00;;
6663;SDS011;58749;48.022;10.922;2022-08-24T04:09:01;5.32;;;2.70;;
6663;SDS011;58749;48.022;10.922;2022-08-24T04:14:58;3.83;;;2.70;;
6663;SDS011;58749;48.022;10.922;2022-08-24T04:17:26;2.88;;;2.30;;
6663;SDS011;58749;48.022;10.922;2022-08-24T04:19:55;4.15;;;2.83;;
6663;SDS011;58749;48.022;10.922;2022-08-24T04:22:24;13.35;;;3.20;;
6663;SDS011;58749;48.022;10.922;2022-08-24T04:24:55;7.60;;;3.22;;
6663;SDS011;58749;48.022;10.922;2022-08-24T04:27:23;5.22;;;2.60;;
6663;SDS011;58749;48.022;10.922;2022-08-24T04:29:51;6.65;;;3.63;;
6663;SDS011;58749;48.022;10.922;2022-08-24T04:32:20;5.00;;;3.08;;
6663;SDS011;58749;48.022;10.922;2022-08-24T04:34:48;4.88;;;2.80;;
6663;SDS011;58749;48.022;10.922;2022-08-24T04:37:16;5.85;;;3.05;;
6663;SDS011;58749;48.022;10.922;2022-08-24T04:39:55;6.65;;;3.17;;
6663;SDS011;58749;48.022;10.922;2022-08-24T04:42:24;4.18;;;3.20;;
6663;SDS011;58749;48.022;10.922;2022-08-24T04:44:52;3.42;;;3.08;;
6663;SDS011;58749;48.022;10.922;2022-08-24T04:47:20;12.23;;;3.63;;
6663;SDS011;58749;48.022;10.922;2022-08-24T04:49:49;6.22;;;3.47;;
6663;SDS011;58749;48.022;10.922;2022-08-24T04:52:17;8.07;;;4.15;;
6663;SDS011;58749;48.022;10.922;2022-08-24T04:54:45;6.35;;;3.83;;
6663;SDS011;58749;48.022;10.922;2022-08-24T04:57:14;5.43;;;3.17;;
6663;SDS011;58749;48.022;10.922;2022-08-24T04:59:43;4.32;;;3.05;;
6663;SDS011;58749;48.022;10.922;2022-08-24T05:02:12;4.22;;;2.92;;
6663;SDS011;58749;48.022;10.922;2022-08-24T05:04:40;5.97;;;2.97;;
6663;SDS011;58749;48.022;10.922;2022-08-24T05:07:08;6.80;;;3.38;;
6663;SDS011;58749;48.022;10.922;2022-08-24T05:09:37;5.68;;;3.15;;
6663;SDS011;58749;48.022;10.922;2022-08-24T05:12:06;5.43;;;3.20;;
6663;SDS011;58749;48.022;10.922;2022-08-24T05:14:36;3.28;;;2.90;;
6663;SDS011;58749;48.022;10.922;2022-08-24T05:17:04;4.53;;;3.58;;
6663;SDS011;58749;48.022;10.922;2022-08-24T05:19:35;4.60;;;3.60;;
6663;SDS011;58749;48.022;10.922;2022-08-24T05:22:04;5.03;;;3.67;;
6663;SDS011;58749;48.022;10.922;2022-08-24T05:24:32;5.10;;;3.33;;
6663;SDS011;58749;48.022;10.922;2022-08-24T05:27:00;4.28;;;3.10;;
6663;SDS011;58749;48.022;10.922;2022-08-24T05:29:28;15.70;;;4.00;;
6663;SDS011;58749;48.022;10.922;2022-08-24T05:32:00;5.03;;;3.40;;
6663;SDS011;58749;48.022;10.922;2022-08-24T05:34:29;5.53;;;3.15;;
6663;SDS011;58749;48.022;10.922;2022-08-24T05:36:58;24.65;;;4.72;;
6663;SDS011;58749;48.022;10.922;2022-08-24T05:39:26;6.15;;;3.42;;
6663;SDS011;58749;48.022;10.922;2022-08-24T05:41:56;5.05;;;3.55;;
6663;SDS011;58749;48.022;10.922;2022-08-24T05:44:25;7.82;;;3.70;;
6663;SDS011;58749;48.022;10.922;2022-08-24T05:46:56;7.70;;;3.30;;
6663;SDS011;58749;48.022;10.922;2022-08-24T05:49:27;4.25;;;2.90;;
6663;SDS011;58749;48.022;10.922;2022-08-24T05:51:55;4.88;;;3.70;;
6663;SDS011;58749;48.022;10.922;2022-08-24T05:54:24;5.40;;;3.50;;
6663;SDS011;58749;48.022;10.922;2022-08-24T05:56:52;10.05;;;4.03;;
6663;SDS011;58749;48.022;10.922;2022-08-24T05:59:22;4.70;;;3.40;;
6663;SDS011;58749;48.022;10.922;2022-08-24T06:01:50;6.05;;;3.55;;
6663;SDS011;58749;48.022;10.922;2022-08-24T06:04:19;5.60;;;3.10;;
6663;SDS011;58749;48.022;10.922;2022-08-24T06:06:51;8.30;;;3.10;;
6663;SDS011;58749;48.022;10.922;2022-08-24T06:09:19;8.90;;;3.33;;
6663;SDS011;58749;48.022;10.922;2022-08-24T06:11:48;6.32;;;3.47;;
6663;SDS011;58749;48.022;10.922;2022-08-24T06:14:17;6.55;;;3.72;;
6663;SDS011;58749;48.022;10.922;2022-08-24T06:16:51;10.52;;;3.40;;
6663;SDS011;58749;48.022;10.922;2022-08-24T06:19:20;5.97;;;3.00;;
6663;SDS011;58749;48.022;10.922;2022-08-24T06:21:50;5.43;;;2.90;;
6663;SDS011;58749;48.022;10.922;2022-08-24T06:24:20;6.95;;;3.35;;
6663;SDS011;58749;48.022;10.922;2022-08-24T06:27:10;6.40;;;2.90;;
6663;SDS011;58749;48.022;10.922;2022-08-24T06:29:47;10.18;;;3.53;;
6663;SDS011;58749;48.022;10.922;2022-08-24T06:32:17;7.07;;;2.92;;
6663;SDS011;58749;48.022;10.922;2022-08-24T06:34:45;5.68;;;3.20;;
6663;SDS011;58749;48.022;10.922;2022-08-24T06:37:15;9.43;;;3.80;;
6663;SDS011;58749;48.022;10.922;2022-08-24T06:39:45;6.82;;;2.97;;
6663;SDS011;58749;48.022;10.922;2022-08-24T06:42:20;6.90;;;3.35;;
6663;SDS011;58749;48.022;10.922;2022-08-24T06:44:50;6.75;;;3.10;;
6663;SDS011;58749;48.022;10.922;2022-08-24T06:47:18;3.70;;;2.63;;
6663;SDS011;58749;48.022;10.922;2022-08-24T06:49:46;5.80;;;3.03;;
6663;SDS011;58749;48.022;10.922;2022-08-24T06:52:16;4.78;;;2.97;;
6663;SDS011;58749;48.022;10.922;2022-08-24T06:54:44;4.05;;;2.60;;
6663;SDS011;58749;48.022;10.922;2022-08-24T06:57:12;7.63;;;2.78;;
6663;SDS011;58749;48.022;10.922;2022-08-24T06:59:40;3.53;;;2.30;;
6663;SDS011;58749;48.022;10.922;2022-08-24T07:02:21;5.10;;;2.55;;
6663;SDS011;58749;48.022;10.922;2022-08-24T07:04:50;4.18;;;3.08;;
6663;SDS011;58749;48.022;10.922;2022-08-24T07:07:19;6.65;;;2.97;;
6663;SDS011;58749;48.022;10.922;2022-08-24T07:09:48;10.93;;;3.42;;
6663;SDS011;58749;48.022;10.922;2022-08-24T07:12:17;7.60;;;3.47;;
6663;SDS011;58749;48.022;10.922;2022-08-24T07:14:45;7.43;;;2.75;;
6663;SDS011;58749;48.022;10.922;2022-08-24T07:17:13;4.72;;;2.83;;
6663;SDS011;58749;48.022;10.922;2022-08-24T07:19:41;4.45;;;3.20;;
6663;SDS011;58749;48.022;10.922;2022-08-24T07:22:09;4.82;;;2.97;;
6663;SDS011;58749;48.022;10.922;2022-08-24T07:24:40;5.78;;;3.03;;
6663;SDS011;58749;48.022;10.922;2022-08-24T07:27:08;6.72;;;2.90;;
6663;SDS011;58749;48.022;10.922;2022-08-24T07:29:37;5.63;;;2.10;;
6663;SDS011;58749;48.022;10.922;2022-08-24T07:32:25;3.70;;;2.72;;
6663;SDS011;58749;48.022;10.922;2022-08-24T07:34:54;3.70;;;2.10;;
6663;SDS011;58749;48.022;10.922;2022-08-24T07:37:22;2.90;;;2.63;;
6663;SDS011;58749;48.022;10.922;2022-08-24T07:39:52;3.17;;;2.17;;
6663;SDS011;58749;48.022;10.922;2022-08-24T07:42:20;3.63;;;2.58;;
6663;SDS011;58749;48.022;10.922;2022-08-24T07:44:57;3.42;;;2.60;;
6663;SDS011;58749;48.022;10.922;2022-08-24T07:47:25;4.47;;;2.70;;
6663;SDS011;58749;48.022;10.922;2022-08-24T07:50:06;2.78;;;2.38;;
6663;SDS011;58749;48.022;10.922;2022-08-24T07:52:35;4.20;;;2.42;;
6663;SDS011;58749;48.022;10.922;2022-08-24T07:55:05;3.42;;;2.45;;
6663;SDS011;58749;48.022;10.922;2022-08-24T07:57:34;4.72;;;2.47;;
6663;SDS011;58749;48.022;10.922;2022-08-24T08:00:05;2.50;;;2.30;;
6663;SDS011;58749;48.022;10.922;2022-08-24T08:02:35;3.88;;;2.72;;
6663;SDS011;58749;48.022;10.922;2022-08-24T08:05:05;7.25;;;2.58;;
6663;SDS011;58749;48.022;10.922;2022-08-24T08:07:34;3.67;;;2.47;;
6663;SDS011;58749;48.022;10.922;2022-08-24T08:10:02;4.72;;;2.28;;
6663;SDS011;58749;48.022;10.922;2022-08-24T08:12:33;2.50;;;2.00;;
6663;SDS011;58749;48.022;10.922;2022-08-24T08:15:02;3.40;;;2.22;;
6663;SDS011;58749;48.022;10.922;2022-08-24T08:17:31;2.95;;;1.95;;
6663;SDS011;58749;48.022;10.922;2022-08-24T08:19:59;4.20;;;2.10;;
6663;SDS011;58749;48.022;10.922;2022-08-24T08:22:27;2.28;;;1.65;;
6663;SDS011;58749;48.022;10.922;2022-08-24T08:25:15;2.35;;;1.90;;
6663;SDS011;58749;48.022;10.922;2022-08-24T08:27:43;3.58;;;2.50;;
6663;SDS011;58749;48.022;10.922;2022-08-24T08:30:12;3.40;;;2.05;;
6663;SDS011;58749;48.022;10.922;2022-08-24T08:32:41;3.10;;;2.22;;
6663;SDS011;58749;48.022;10.922;2022-08-24T08:35:09;2.15;;;1.77;;
6663;SDS011;58749;48.022;10.922;2022-08-24T08:37:38;2.33;;;2.08;;
6663;SDS011;58749;48.022;10.922;2022-08-24T08:40:07;2.35;;;1.33;;
6663;SDS011;58749;48.022;10.922;2022-08-24T08:42:49;7.05;;;2.45;;
6663;SDS011;58749;48.022;10.922;2022-08-24T08:51:14;3.08;;;2.25;;
6663;SDS011;58749;48.022;10.922;2022-08-24T08:54:09;2.25;;;2.03;;
6663;SDS011;58749;48.022;10.922;2022-08-24T08:56:43;1.77;;;1.63;;
6663;SDS011;58749;48.022;10.922;2022-08-24T08:59:32;4.70;;;1.88;;
6663;SDS011;58749;48.022;10.922;2022-08-24T09:02:17;2.75;;;2.30;;
6663;SDS011;58749;48.022;10.922;2022-08-24T09:08:16;5.13;;;1.75;;
6663;SDS011;58749;48.022;10.922;2022-08-24T09:10:53;4.05;;;1.70;;
6663;SDS011;58749;48.022;10.922;2022-08-24T09:13:34;4.95;;;1.88;;
6663;SDS011;58749;48.022;10.922;2022-08-24T09:16:24;4.53;;;2.00;;
6663;SDS011;58749;48.022;10.922;2022-08-24T09:19:12;3.47;;;1.50;;
6663;SDS011;58749;48.022;10.922;2022-08-24T09:22:01;2.15;;;1.95;;
6663;SDS011;58749;48.022;10.922;2022-08-24T09:24:42;2.45;;;1.60;;
6663;SDS011;58749;48.022;10.922;2022-08-24T09:27:22;4.15;;;1.75;;
6663;SDS011;58749;48.022;10.922;2022-08-24T09:30:07;2.88;;;2.22;;
6663;SDS011;58749;48.022;10.922;2022-08-24T09:35:32;2.95;;;1.90;;
6663;SDS011;58749;48.022;10.922;2022-08-24T09:38:11;3.40;;;2.03;;
6663;SDS011;58749;48.022;10.922;2022-08-24T09:40:51;2.05;;;1.45;;
6663;SDS011;58749;48.022;10.922;2022-08-24T09:43:55;6.70;;;2.20;;
6663;SDS011;58749;48.022;10.922;2022-08-24T09:52:53;4.43;;;1.70;;
6663;SDS011;58749;48.022;10.922;2022-08-24T09:55:49;3.80;;;1.50;;
6663;SDS011;58749;48.022;10.922;2022-08-24T09:58:33;2.17;;;1.70;;
6663;SDS011;58749;48.022;10.922;2022-08-24T10:01:13;2.47;;;1.60;;
6663;SDS011;58749;48.022;10.922;2022-08-24T10:04:03;3.22;;;1.95;;
6663;SDS011;58749;48.022;10.922;2022-08-24T10:06:42;3.65;;;1.85;;
6663;SDS011;58749;48.022;10.922;2022-08-24T10:09:41;5.32;;;1.80;;
6663;SDS011;58749;48.022;10.922;2022-08-24T10:12:23;2.45;;;1.60;;
6663;SDS011;58749;48.022;10.922;2022-08-24T10:15:04;8.55;;;2.22;;
6663;SDS011;58749;48.022;10.922;2022-08-24T10:17:38;4.05;;;1.48;;
6663;SDS011;58749;48.022;10.922;2022-08-24T10:20:17;5.20;;;1.70;;
6663;SDS011;58749;48.022;10.922;2022-08-24T10:25:55;5.25;;;1.77;;
6663;SDS011;58749;48.022;10.922;2022-08-24T10:28:38;5.18;;;1.95;;
6663;SDS011;58749;48.022;10.922;2022-08-24T10:31:20;2.75;;;2.17;;
6663;SDS011;58749;48.022;10.922;2022-08-24T10:33:59;2.47;;;1.67;;
6663;SDS011;58749;48.022;10.922;2022-08-24T10:36:47;2.63;;;1.60;;
6663;SDS011;58749;48.022;10.922;2022-08-24T10:39:43;3.70;;;2.05;;
6663;SDS011;58749;48.022;10.922;2022-08-24T10:46:15;1.92;;;1.70;;
6663;SDS011;58749;48.022;10.922;2022-08-24T10:55:40;5.25;;;1.65;;
6663;SDS011;58749;48.022;10.922;2022-08-24T10:58:12;3.42;;;1.50;;
6663;SDS011;58749;48.022;10.922;2022-08-24T11:01:15;4.97;;;1.90;;
6663;SDS011;58749;48.022;10.922;2022-08-24T11:03:48;2.28;;;1.67;;
6663;SDS011;58749;48.022;10.922;2022-08-24T11:06:18;3.30;;;2.10;;
6663;SDS011;58749;48.022;10.922;2022-08-24T11:08:52;4.63;;;2.13;;
6663;SDS011;58749;48.022;10.922;2022-08-24T11:11:25;4.95;;;1.90;;
6663;SDS011;58749;48.022;10.922;2022-08-24T11:13:58;8.05;;;2.75;;
6663;SDS011;58749;48.022;10.922;2022-08-24T11:16:31;3.92;;;1.83;;
6663;SDS011;58749;48.022;10.922;2022-08-24T11:19:03;4.68;;;1.92;;
6663;SDS011;58749;48.022;10.922;2022-08-24T11:21:45;3.83;;;2.03;;
6663;SDS011;58749;48.022;10.922;2022-08-24T11:24:27;2.70;;;1.67;;
6663;SDS011;58749;48.022;10.922;2022-08-24T11:27:05;6.75;;;2.22;;
6663;SDS011;58749;48.022;10.922;2022-08-24T11:29:57;3.90;;;2.15;;
6663;SDS011;58749;48.022;10.922;2022-08-24T11:32:29;4.80;;;1.42;;
6663;SDS011;58749;48.022;10.922;2022-08-24T11:35:05;2.55;;;1.85;;
6663;SDS011;58749;48.022;10.922;2022-08-24T11:37:36;1.83;;;1.55;;
6663;SDS011;58749;48.022;10.922;2022-08-24T11:40:06;3.03;;;1.70;;
6663;SDS011;58749;48.022;10.922;2022-08-24T11:42:49;4.75;;;1.73;;
6663;SDS011;58749;48.022;10.922;2022-08-24T11:45:34;3.67;;;2.17;;
6663;SDS011;58749;48.022;10.922;2022-08-24T11:48:12;4.05;;;2.05;;
6663;SDS011;58749;48.022;10.922;2022-08-24T11:50:47;3.60;;;1.88;;
6663;SDS011;58749;48.022;10.922;2022-08-24T11:53:23;3.85;;;1.60;;
6663;SDS011;58749;48.022;10.922;2022-08-24T11:56:02;2.58;;;1.67;;
6663;SDS011;58749;48.022;10.922;2022-08-24T11:58:44;3.72;;;1.67;;
6663;SDS011;58749;48.022;10.922;2022-08-24T12:01:22;4.03;;;1.48;;
6663;SDS011;58749;48.022;10.922;2022-08-24T12:03:58;1.70;;;1.20;;
6663;SDS011;58749;48.022;10.922;2022-08-24T12:06:41;3.20;;;1.42;;
6663;SDS011;58749;48.022;10.922;2022-08-24T12:09:24;2.67;;;1.55;;
6663;SDS011;58749;48.022;10.922;2022-08-24T12:12:05;3.80;;;1.70;;
6663;SDS011;58749;48.022;10.922;2022-08-24T12:14:42;2.55;;;1.10;;
6663;SDS011;58749;48.022;10.922;2022-08-24T12:19:50;3.65;;;2.03;;
6663;SDS011;58749;48.022;10.922;2022-08-24T12:22:22;3.28;;;2.10;;
6663;SDS011;58749;48.022;10.922;2022-08-24T12:24:51;9.30;;;1.88;;
6663;SDS011;58749;48.022;10.922;2022-08-24T12:27:23;2.80;;;1.40;;
6663;SDS011;58749;48.022;10.922;2022-08-24T12:29:56;3.15;;;1.23;;
6663;SDS011;58749;48.022;10.922;2022-08-24T12:32:35;3.15;;;1.85;;
6663;SDS011;58749;48.022;10.922;2022-08-24T12:35:08;3.25;;;1.58;;
6663;SDS011;58749;48.022;10.922;2022-08-24T12:37:43;2.40;;;1.38;;
6663;SDS011;58749;48.022;10.922;2022-08-24T12:40:19;4.43;;;1.80;;
6663;SDS011;58749;48.022;10.922;2022-08-24T12:42:51;5.07;;;1.70;;
6663;SDS011;58749;48.022;10.922;2022-08-24T12:45:22;2.40;;;1.42;;
6663;SDS011;58749;48.022;10.922;2022-08-24T12:47:53;1.65;;;1.55;;
6663;SDS011;58749;48.022;10.922;2022-08-24T12:50:28;2.08;;;1.67;;
6663;SDS011;58749;48.022;10.922;2022-08-24T12:56:10;4.20;;;1.67;;
6663;SDS011;58749;48.022;10.922;2022-08-24T12:59:05;1.73;;;1.42;;
6663;SDS011;58749;48.022;10.922;2022-08-24T13:01:54;4.28;;;1.80;;
6663;SDS011;58749;48.022;10.922;2022-08-24T13:04:32;7.72;;;1.50;;
6663;SDS011;58749;48.022;10.922;2022-08-24T13:07:05;4.13;;;1.50;;
6663;SDS011;58749;48.022;10.922;2022-08-24T13:09:36;2.35;;;1.30;;
6663;SDS011;58749;48.022;10.922;2022-08-24T13:15:19;2.17;;;1.42;;
6663;SDS011;58749;48.022;10.922;2022-08-24T13:17:52;2.13;;;1.70;;
6663;SDS011;58749;48.022;10.922;2022-08-24T13:23:21;3.97;;;1.58;;
6663;SDS011;58749;48.022;10.922;2022-08-24T13:25:52;2.58;;;2.08;;
6663;SDS011;58749;48.022;10.922;2022-08-24T13:28:29;4.10;;;1.77;;
6663;SDS011;58749;48.022;10.922;2022-08-24T13:31:21;2.63;;;1.52;;
6663;SDS011;58749;48.022;10.922;2022-08-24T13:33:55;3.00;;;1.48;;
6663;SDS011;58749;48.022;10.922;2022-08-24T13:45:40;4.43;;;1.50;;
6663;SDS011;58749;48.022;10.922;2022-08-24T13:48:16;3.08;;;1.75;;
6663;SDS011;58749;48.022;10.922;2022-08-24T13:51:02;1.83;;;1.42;;
6663;SDS011;58749;48.022;10.922;2022-08-24T13:53:57;2.42;;;1.30;;
6663;SDS011;58749;48.022;10.922;2022-08-24T13:56:49;3.78;;;1.67;;
6663;SDS011;58749;48.022;10.922;2022-08-24T13:59:37;2.05;;;1.52;;
6663;SDS011;58749;48.022;10.922;2022-08-24T14:02:28;1.70;;;1.60;;
6663;SDS011;58749;48.022;10.922;2022-08-24T14:05:10;6.60;;;1.75;;
6663;SDS011;58749;48.022;10.922;2022-08-24T14:07:52;4.18;;;1.52;;
6663;SDS011;58749;48.022;10.922;2022-08-24T14:10:38;4.78;;;1.92;;
6663;SDS011;58749;48.022;10.922;2022-08-24T14:13:23;2.08;;;1.70;;
6663;SDS011;58749;48.022;10.922;2022-08-24T14:16:00;2.70;;;2.03;;
6663;SDS011;58749;48.022;10.922;2022-08-24T14:18:59;6.22;;;2.05;;
6663;SDS011;58749;48.022;10.922;2022-08-24T14:21:38;2.28;;;1.52;;
6663;SDS011;58749;48.022;10.922;2022-08-24T14:24:12;2.65;;;1.50;;
6663;SDS011;58749;48.022;10.922;2022-08-24T14:27:02;3.53;;;1.83;;
6663;SDS011;58749;48.022;10.922;2022-08-24T14:29:43;2.40;;;1.77;;
6663;SDS011;58749;48.022;10.922;2022-08-24T14:35:17;4.60;;;1.95;;
6663;SDS011;58749;48.022;10.922;2022-08-24T14:37:59;3.90;;;1.88;;
6663;SDS011;58749;48.022;10.922;2022-08-24T14:40:41;2.65;;;1.80;;
6663;SDS011;58749;48.022;10.922;2022-08-24T14:43:24;1.98;;;1.85;;
6663;SDS011;58749;48.022;10.922;2022-08-24T14:45:59;5.45;;;2.00;;
6663;SDS011;58749;48.022;10.922;2022-08-24T14:48:37;1.92;;;1.65;;
6663;SDS011;58749;48.022;10.922;2022-08-24T14:51:15;2.78;;;1.88;;
6663;SDS011;58749;48.022;10.922;2022-08-24T14:53:57;2.45;;;1.67;;
6663;SDS011;58749;48.022;10.922;2022-08-24T14:56:43;4.88;;;1.75;;
6663;SDS011;58749;48.022;10.922;2022-08-24T14:59:25;4.53;;;2.15;;
6663;SDS011;58749;48.022;10.922;2022-08-24T15:02:14;2.72;;;1.65;;
6663;SDS011;58749;48.022;10.922;2022-08-24T15:05:15;2.70;;;1.77;;
6663;SDS011;58749;48.022;10.922;2022-08-24T15:07:54;3.80;;;2.00;;
6663;SDS011;58749;48.022;10.922;2022-08-24T15:10:26;3.05;;;2.30;;
6663;SDS011;58749;48.022;10.922;2022-08-24T15:13:03;2.28;;;2.00;;
6663;SDS011;58749;48.022;10.922;2022-08-24T15:15:39;4.38;;;1.98;;
6663;SDS011;58749;48.022;10.922;2022-08-24T15:18:17;3.50;;;1.80;;
6663;SDS011;58749;48.022;10.922;2022-08-24T15:21:04;2.70;;;2.20;;
6663;SDS011;58749;48.022;10.922;2022-08-24T15:23:44;1.95;;;1.70;;
6663;SDS011;58749;48.022;10.922;2022-08-24T15:26:21;2.08;;;1.60;;
6663;SDS011;58749;48.022;10.922;2022-08-24T15:28:56;2.28;;;1.90;;
6663;SDS011;58749;48.022;10.922;2022-08-24T15:31:27;3.17;;;2.10;;
6663;SDS011;58749;48.022;10.922;2022-08-24T15:33:57;2.15;;;1.73;;
6663;SDS011;58749;48.022;10.922;2022-08-24T15:36:27;2.15;;;1.83;;
6663;SDS011;58749;48.022;10.922;2022-08-24T15:38:58;2.67;;;2.05;;
6663;SDS011;58749;48.022;10.922;2022-08-24T15:41:28;3.92;;;1.60;;
6663;SDS011;58749;48.022;10.922;2022-08-24T15:43:58;2.72;;;1.88;;
6663;SDS011;58749;48.022;10.922;2022-08-24T15:46:33;3.58;;;1.80;;
6663;SDS011;58749;48.022;10.922;2022-08-24T15:49:06;5.47;;;1.90;;
6663;SDS011;58749;48.022;10.922;2022-08-24T15:51:47;3.40;;;1.92;;
6663;SDS011;58749;48.022;10.922;2022-08-24T15:54:27;2.35;;;1.83;;
6663;SDS011;58749;48.022;10.922;2022-08-24T15:57:01;3.75;;;1.73;;
6663;SDS011;58749;48.022;10.922;2022-08-24T15:59:43;2.83;;;1.58;;
6663;SDS011;58749;48.022;10.922;2022-08-24T16:02:24;4.75;;;1.80;;
6663;SDS011;58749;48.022;10.922;2022-08-24T16:04:59;4.18;;;1.98;;
6663;SDS011;58749;48.022;10.922;2022-08-24T16:08:04;2.13;;;1.63;;
6663;SDS011;58749;48.022;10.922;2022-08-24T16:10:35;1.60;;;1.50;;
6663;SDS011;58749;48.022;10.922;2022-08-24T16:13:07;2.10;;;1.38;;
6663;SDS011;58749;48.022;10.922;2022-08-24T16:15:52;2.67;;;1.80;;
6663;SDS011;58749;48.022;10.922;2022-08-24T16:18:40;3.75;;;1.80;;
6663;SDS011;58749;48.022;10.922;2022-08-24T16:21:16;2.65;;;1.58;;
6663;SDS011;58749;48.022;10.922;2022-08-24T16:23:52;1.77;;;1.65;;
6663;SDS011;58749;48.022;10.922;2022-08-24T16:26:23;2.80;;;1.92;;
6663;SDS011;58749;48.022;10.922;2022-08-24T16:28:53;1.55;;;1.42;;